sensor_id;sensor_type;location;lat;lon;timestamp;pressure;altitude;pressure_sealevel;temperature;humidity
32873;BME280;19224;52.462;16.898;2023-04-20T00:00:42;100737.76;;;8.51;100.00
32873;BME280;19224;52.462;16.898;2023-04-20T00:03:19;100739.38;;;8.56;100.00
32873;BME280;19224;52.462;16.898;2023-04-20T00:05:51;100737.52;;;8.58;100.00
32873;BME280;19224;52.462;16.898;2023-04-20T00:08:21;100737.69;;;8.52;100.00
32873;BME280;19224;52.462;16.898;2023-04-20T00:10:51;100742.23;;;8.50;100.00
32873;BME280;19224;52.462;16.898;2023-04-20T00:13:25;100743.19;;;8.48;100.00
32873;BME280;19224;52.462;16.898;2023-04-20T00:15:55;100741.02;;;8.46;100.00
32873;BME280;19224;52.462;16.898;2023-04-20T00:18:30;100740.80;;;8.39;100.00
32873;BME280;19224;52.462;16.898;2023-04-20T00:21:00;100746.36;;;8.31;100.00
32873;BME280;19224;52.462;16.898;2023-04-20T00:23:32;100749.97;;;8.30;100.00
32873;BME280;19224;52.462;16.898;2023-04-20T00:26:05;100741.86;;;8.33;100.00
32873;BME280;19224;52.462;16.898;2023-04-20T00:28:35;100748.82;;;8.24;100.00
32873;BME280;19224;52.462;16.898;2023-04-20T00:31:06;100743.45;;;8.24;100.00
32873;BME280;19224;52.462;16.898;2023-04-20T00:33:36;100740.77;;;8.24;100.00
32873;BME280;19224;52.462;16.898;2023-04-20T00:36:07;100740.77;;;8.24;100.00
32873;BME280;19224;52.462;16.898;2023-04-20T00:38:39;100738.40;;;8.12;100.00
32873;BME280;19224;52.462;16.898;2023-04-20T00:41:11;100740.60;;;8.13;100.00
32873;BME280;19224;52.462;16.898;2023-04-20T00:43:56;100740.36;;;8.23;100.00
32873;BME280;19224;52.462;16.898;2023-04-20T00:46:28;100744.18;;;8.13;100.00
32873;BME280;19224;52.462;16.898;2023-04-20T00:49:04;100745.94;;;8.30;100.00
32873;BME280;19224;52.462;16.898;2023-04-20T00:51:30;100745.53;;;8.29;100.00
32873;BME280;19224;52.462;16.898;2023-04-20T00:54:03;100737.89;;;8.30;100.00
32873;BME280;19224;52.462;16.898;2023-04-20T00:56:55;100731.59;;;8.15;100.00
32873;BME280;19224;52.462;16.898;2023-04-20T00:59:30;100735.11;;;8.19;100.00
32873;BME280;19224;52.462;16.898;2023-04-20T01:02:05;100731.56;;;8.17;100.00
32873;BME280;19224;52.462;16.898;2023-04-20T01:04:33;100734.12;;;8.21;100.00
32873;BME280;19224;52.462;16.898;2023-04-20T01:07:06;100737.32;;;8.19;100.00
32873;BME280;19224;52.462;16.898;2023-04-20T01:09:39;100732.84;;;8.20;100.00
32873;BME280;19224;52.462;16.898;2023-04-20T01:12:11;100736.68;;;8.26;100.00
32873;BME280;19224;52.462;16.898;2023-04-20T01:14:46;100733.55;;;8.26;100.00
32873;BME280;19224;52.462;16.898;2023-04-20T01:17:14;100724.58;;;8.27;100.00
32873;BME280;19224;52.462;16.898;2023-04-20T01:19:51;100727.41;;;8.05;100.00
32873;BME280;19224;52.462;16.898;2023-04-20T01:22:19;100721.89;;;8.11;100.00
32873;BME280;19224;52.462;16.898;2023-04-20T01:24:49;100723.39;;;8.05;100.00
32873;BME280;19224;52.462;16.898;2023-04-20T01:27:21;100714.92;;;8.04;100.00
32873;BME280;19224;52.462;16.898;2023-04-20T01:29:51;100707.42;;;8.01;100.00
32873;BME280;19224;52.462;16.898;2023-04-20T01:32:24;100709.39;;;7.94;100.00
32873;BME280;19224;52.462;16.898;2023-04-20T01:34:57;100706.39;;;7.90;100.00
32873;BME280;19224;52.462;16.898;2023-04-20T01:37:27;100705.97;;;7.89;100.00
32873;BME280;19224;52.462;16.898;2023-04-20T01:39:58;100705.49;;;7.90;100.00
32873;BME280;19224;52.462;16.898;2023-04-20T01:42:28;100713.16;;;7.87;100.00
32873;BME280;19224;52.462;16.898;2023-04-20T01:45:06;100716.75;;;7.86;100.00
32873;BME280;19224;52.462;16.898;2023-04-20T01:47:36;100720.62;;;7.92;100.00
32873;BME280;19224;52.462;16.898;2023-04-20T01:50:07;100715.48;;;7.85;100.00
32873;BME280;19224;52.462;16.898;2023-04-20T01:52:39;100716.19;;;7.91;100.00
32873;BME280;19224;52.462;16.898;2023-04-20T01:55:11;100720.75;;;7.88;100.00
32873;BME280;19224;52.462;16.898;2023-04-20T01:57:47;100722.48;;;7.90;100.00
32873;BME280;19224;52.462;16.898;2023-04-20T02:00:21;100717.88;;;7.94;100.00
32873;BME280;19224;52.462;16.898;2023-04-20T02:02:58;100716.06;;;7.96;100.00
32873;BME280;19224;52.462;16.898;2023-04-20T02:05:25;100715.83;;;7.87;100.00
32873;BME280;19224;52.462;16.898;2023-04-20T02:07:59;100711.52;;;7.82;100.00
32873;BME280;19224;52.462;16.898;2023-04-20T02:10:29;100712.14;;;7.75;100.00
32873;BME280;19224;52.462;16.898;2023-04-20T02:12:59;100705.41;;;7.77;100.00
32873;BME280;19224;52.462;16.898;2023-04-20T02:15:29;100711.08;;;7.66;100.00
32873;BME280;19224;52.462;16.898;2023-04-20T02:17:59;100715.19;;;7.79;100.00
32873;BME280;19224;52.462;16.898;2023-04-20T02:20:29;100713.24;;;7.84;100.00
32873;BME280;19224;52.462;16.898;2023-04-20T02:23:02;100711.05;;;7.84;100.00
32873;BME280;19224;52.462;16.898;2023-04-20T02:25:32;100716.93;;;7.96;100.00
32873;BME280;19224;52.462;16.898;2023-04-20T02:28:07;100719.97;;;8.00;100.00
32873;BME280;19224;52.462;16.898;2023-04-20T02:30:38;100718.41;;;8.08;100.00
32873;BME280;19224;52.462;16.898;2023-04-20T02:33:15;100724.86;;;8.17;100.00
32873;BME280;19224;52.462;16.898;2023-04-20T02:35:47;100713.68;;;8.16;100.00
32873;BME280;19224;52.462;16.898;2023-04-20T02:38:18;100711.06;;;8.14;100.00
32873;BME280;19224;52.462;16.898;2023-04-20T02:40:54;100714.09;;;8.18;100.00
32873;BME280;19224;52.462;16.898;2023-04-20T02:43:24;100717.20;;;8.19;100.00
32873;BME280;19224;52.462;16.898;2023-04-20T02:45:54;100709.62;;;8.19;100.00
32873;BME280;19224;52.462;16.898;2023-04-20T02:48:24;100726.27;;;8.14;100.00
32873;BME280;19224;52.462;16.898;2023-04-20T02:50:57;100716.33;;;8.17;100.00
32873;BME280;19224;52.462;16.898;2023-04-20T02:53:29;100719.44;;;8.20;100.00
32873;BME280;19224;52.462;16.898;2023-04-20T02:55:59;100727.95;;;8.18;100.00
32873;BME280;19224;52.462;16.898;2023-04-20T02:58:39;100727.42;;;8.21;100.00
32873;BME280;19224;52.462;16.898;2023-04-20T03:01:04;100721.48;;;8.26;100.00
32873;BME280;19224;52.462;16.898;2023-04-20T03:03:35;100728.19;;;8.26;100.00
32873;BME280;19224;52.462;16.898;2023-04-20T03:06:10;100726.75;;;8.29;100.00
32873;BME280;19224;52.462;16.898;2023-04-20T03:08:41;100725.76;;;8.33;100.00
32873;BME280;19224;52.462;16.898;2023-04-20T03:11:12;100720.52;;;8.29;100.00
32873;BME280;19224;52.462;16.898;2023-04-20T03:13:43;100711.13;;;8.29;100.00
32873;BME280;19224;52.462;16.898;2023-04-20T03:16:15;100710.33;;;8.25;100.00
32873;BME280;19224;52.462;16.898;2023-04-20T03:18:45;100712.12;;;8.25;100.00
32873;BME280;19224;52.462;16.898;2023-04-20T03:21:20;100707.64;;;8.25;100.00
32873;BME280;19224;52.462;16.898;2023-04-20T03:23:47;100712.66;;;8.21;100.00
32873;BME280;19224;52.462;16.898;2023-04-20T03:26:18;100727.55;;;8.17;100.00
32873;BME280;19224;52.462;16.898;2023-04-20T03:28:50;100725.25;;;8.19;100.00
32873;BME280;19224;52.462;16.898;2023-04-20T03:31:20;100718.92;;;8.22;100.00
32873;BME280;19224;52.462;16.898;2023-04-20T03:33:59;100718.48;;;8.22;100.00
32873;BME280;19224;52.462;16.898;2023-04-20T03:36:29;100724.67;;;8.24;100.00
32873;BME280;19224;52.462;16.898;2023-04-20T03:39:00;100723.48;;;8.18;100.00
32873;BME280;19224;52.462;16.898;2023-04-20T03:41:31;100725.09;;;8.25;100.00
32873;BME280;19224;52.462;16.898;2023-04-20T03:44:06;100724.80;;;8.20;100.00
32873;BME280;19224;52.462;16.898;2023-04-20T03:46:38;100718.19;;;8.15;100.00
32873;BME280;19224;52.462;16.898;2023-04-20T03:49:13;100720.48;;;8.13;100.00
32873;BME280;19224;52.462;16.898;2023-04-20T03:51:46;100721.44;;;8.10;100.00
32873;BME280;19224;52.462;16.898;2023-04-20T03:54:16;100730.77;;;8.13;100.00
32873;BME280;19224;52.462;16.898;2023-04-20T03:56:48;100731.19;;;8.14;100.00
32873;BME280;19224;52.462;16.898;2023-04-20T03:59:18;100731.63;;;8.14;100.00
32873;BME280;19224;52.462;16.898;2023-04-20T04:01:50;100728.89;;;8.17;100.00
32873;BME280;19224;52.462;16.898;2023-04-20T04:04:20;100730.55;;;8.22;100.00
32873;BME280;19224;52.462;16.898;2023-04-20T04:06:51;100725.25;;;8.19;100.00
32873;BME280;19224;52.462;16.898;2023-04-20T04:09:21;100728.85;;;8.18;100.00
32873;BME280;19224;52.462;16.898;2023-04-20T04:11:52;100723.55;;;8.15;100.00
32873;BME280;19224;52.462;16.898;2023-04-20T04:14:22;100723.67;;;8.11;100.00
32873;BME280;19224;52.462;16.898;2023-04-20T04:16:55;100719.27;;;8.08;100.00
32873;BME280;19224;52.462;16.898;2023-04-20T04:19:25;100727.67;;;8.12;100.00
32873;BME280;19224;52.462;16.898;2023-04-20T04:21:55;100730.77;;;8.13;100.00
32873;BME280;19224;52.462;16.898;2023-04-20T04:24:25;100727.00;;;8.20;100.00
32873;BME280;19224;52.462;16.898;2023-04-20T04:27:02;100729.63;;;8.23;100.00
32873;BME280;19224;52.462;16.898;2023-04-20T04:29:36;100732.91;;;8.33;100.00
32873;BME280;19224;52.462;16.898;2023-04-20T04:32:06;100735.84;;;8.40;100.00
32873;BME280;19224;52.462;16.898;2023-04-20T04:34:38;100726.58;;;8.35;100.00
32873;BME280;19224;52.462;16.898;2023-04-20T04:37:11;100734.38;;;8.28;100.00
32873;BME280;19224;52.462;16.898;2023-04-20T04:39:43;100731.03;;;8.36;100.00
32873;BME280;19224;52.462;16.898;2023-04-20T04:42:15;100729.27;;;8.35;100.00
32873;BME280;19224;52.462;16.898;2023-04-20T04:44:49;100730.09;;;8.37;100.00
32873;BME280;19224;52.462;16.898;2023-04-20T04:47:24;100732.69;;;8.40;100.00
32873;BME280;19224;52.462;16.898;2023-04-20T04:49:57;100725.17;;;8.37;100.00
32873;BME280;19224;52.462;16.898;2023-04-20T04:52:32;100729.45;;;8.44;100.00
32873;BME280;19224;52.462;16.898;2023-04-20T04:55:05;100732.11;;;8.45;100.00
32873;BME280;19224;52.462;16.898;2023-04-20T04:57:37;100737.34;;;8.50;100.00
32873;BME280;19224;52.462;16.898;2023-04-20T05:00:09;100741.14;;;8.57;100.00
32873;BME280;19224;52.462;16.898;2023-04-20T05:02:41;100740.94;;;8.63;100.00
32873;BME280;19224;52.462;16.898;2023-04-20T05:05:14;100742.56;;;8.69;100.00
32873;BME280;19224;52.462;16.898;2023-04-20T05:07:47;100747.41;;;8.71;100.00
32873;BME280;19224;52.462;16.898;2023-04-20T05:10:32;100745.52;;;8.74;100.00
32873;BME280;19224;52.462;16.898;2023-04-20T05:12:53;100743.36;;;8.72;100.00
32873;BME280;19224;52.462;16.898;2023-04-20T05:15:24;100752.41;;;8.83;100.00
32873;BME280;19224;52.462;16.898;2023-04-20T05:18:17;100749.00;;;8.92;100.00
32873;BME280;19224;52.462;16.898;2023-04-20T05:20:47;100754.55;;;9.01;100.00
32873;BME280;19224;52.462;16.898;2023-04-20T05:23:19;100756.16;;;9.06;100.00
32873;BME280;19224;52.462;16.898;2023-04-20T05:25:49;100756.59;;;9.20;100.00
32873;BME280;19224;52.462;16.898;2023-04-20T05:28:19;100755.89;;;9.28;100.00
32873;BME280;19224;52.462;16.898;2023-04-20T05:30:53;100756.47;;;9.38;100.00
32873;BME280;19224;52.462;16.898;2023-04-20T05:33:22;100758.59;;;9.41;100.00
32873;BME280;19224;52.462;16.898;2023-04-20T05:35:57;100755.91;;;9.41;100.00
32873;BME280;19224;52.462;16.898;2023-04-20T05:38:26;100758.86;;;9.46;100.00
32873;BME280;19224;52.462;16.898;2023-04-20T05:40:56;100759.23;;;9.49;100.00
32873;BME280;19224;52.462;16.898;2023-04-20T05:43:26;100756.13;;;9.61;100.00
32873;BME280;19224;52.462;16.898;2023-04-20T05:45:59;100755.19;;;9.75;100.00
32873;BME280;19224;52.462;16.898;2023-04-20T05:48:32;100760.07;;;9.90;100.00
32873;BME280;19224;52.462;16.898;2023-04-20T05:51:11;100769.25;;;9.96;100.00
32873;BME280;19224;52.462;16.898;2023-04-20T05:53:36;100766.16;;;9.95;100.00
32873;BME280;19224;52.462;16.898;2023-04-20T05:56:08;100768.73;;;9.98;100.00
32873;BME280;19224;52.462;16.898;2023-04-20T05:58:39;100770.67;;;9.94;100.00
32873;BME280;19224;52.462;16.898;2023-04-20T06:01:09;100759.85;;;9.83;100.00
32873;BME280;19224;52.462;16.898;2023-04-20T06:03:41;100752.42;;;9.78;100.00
32873;BME280;19224;52.462;16.898;2023-04-20T06:06:12;100751.90;;;9.80;100.00
32873;BME280;19224;52.462;16.898;2023-04-20T06:08:47;100760.30;;;9.82;100.00
32873;BME280;19224;52.462;16.898;2023-04-20T06:11:21;100760.67;;;9.85;100.00
32873;BME280;19224;52.462;16.898;2023-04-20T06:13:54;100762.76;;;9.90;100.00
32873;BME280;19224;52.462;16.898;2023-04-20T06:16:24;100762.94;;;9.97;100.00
32873;BME280;19224;52.462;16.898;2023-04-20T06:18:58;100751.32;;;10.09;100.00
32873;BME280;19224;52.462;16.898;2023-04-20T06:21:29;100756.42;;;10.17;100.00
32873;BME280;19224;52.462;16.898;2023-04-20T06:24:08;100760.26;;;10.23;100.00
32873;BME280;19224;52.462;16.898;2023-04-20T06:26:43;100766.88;;;10.37;100.00
32873;BME280;19224;52.462;16.898;2023-04-20T06:29:12;100762.27;;;10.41;100.00
32873;BME280;19224;52.462;16.898;2023-04-20T06:31:45;100759.89;;;10.45;100.00
32873;BME280;19224;52.462;16.898;2023-04-20T06:34:15;100760.99;;;10.51;100.00
32873;BME280;19224;52.462;16.898;2023-04-20T06:36:45;100760.59;;;10.50;100.00
32873;BME280;19224;52.462;16.898;2023-04-20T06:39:19;100765.03;;;10.51;100.00
32873;BME280;19224;52.462;16.898;2023-04-20T06:41:55;100772.00;;;10.56;100.00
32873;BME280;19224;52.462;16.898;2023-04-20T06:44:26;100769.91;;;10.64;100.00
32873;BME280;19224;52.462;16.898;2023-04-20T06:46:58;100778.16;;;10.71;100.00
32873;BME280;19224;52.462;16.898;2023-04-20T06:49:33;100777.72;;;10.83;100.00
32873;BME280;19224;52.462;16.898;2023-04-20T06:52:06;100777.02;;;10.90;100.00
32873;BME280;19224;52.462;16.898;2023-04-20T06:54:37;100776.40;;;10.93;100.00
32873;BME280;19224;52.462;16.898;2023-04-20T06:57:07;100782.23;;;10.94;100.00
32873;BME280;19224;52.462;16.898;2023-04-20T06:59:43;100776.35;;;10.95;100.00
32873;BME280;19224;52.462;16.898;2023-04-20T07:02:17;100775.47;;;11.06;100.00
32873;BME280;19224;52.462;16.898;2023-04-20T07:04:48;100772.42;;;11.15;100.00
32873;BME280;19224;52.462;16.898;2023-04-20T07:07:18;100773.36;;;11.14;100.00
32873;BME280;19224;52.462;16.898;2023-04-20T07:09:53;100774.45;;;11.31;100.00
32873;BME280;19224;52.462;16.898;2023-04-20T07:12:23;100779.80;;;11.43;100.00
32873;BME280;19224;52.462;16.898;2023-04-20T07:14:56;100784.47;;;11.49;100.00
32873;BME280;19224;52.462;16.898;2023-04-20T07:17:28;100778.28;;;11.59;100.00
32873;BME280;19224;52.462;16.898;2023-04-20T07:19:58;100769.92;;;11.65;100.00
32873;BME280;19224;52.462;16.898;2023-04-20T07:22:38;100776.59;;;11.78;100.00
32873;BME280;19224;52.462;16.898;2023-04-20T07:25:12;100779.55;;;11.82;100.00
32873;BME280;19224;52.462;16.898;2023-04-20T07:27:40;100781.56;;;11.87;100.00
32873;BME280;19224;52.462;16.898;2023-04-20T07:30:10;100782.81;;;11.90;100.00
32873;BME280;19224;52.462;16.898;2023-04-20T07:32:40;100792.55;;;12.03;100.00
32873;BME280;19224;52.462;16.898;2023-04-20T07:35:10;100798.77;;;12.15;100.00
32873;BME280;19224;52.462;16.898;2023-04-20T07:37:46;100794.84;;;12.32;100.00
32873;BME280;19224;52.462;16.898;2023-04-20T07:40:12;100793.44;;;12.44;100.00
32873;BME280;19224;52.462;16.898;2023-04-20T07:42:44;100794.98;;;12.59;100.00
32873;BME280;19224;52.462;16.898;2023-04-20T07:45:14;100800.43;;;12.78;100.00
32873;BME280;19224;52.462;16.898;2023-04-20T07:47:44;100803.88;;;13.01;100.00
32873;BME280;19224;52.462;16.898;2023-04-20T07:50:16;100810.70;;;13.18;100.00
32873;BME280;19224;52.462;16.898;2023-04-20T07:52:48;100807.30;;;13.33;100.00
32873;BME280;19224;52.462;16.898;2023-04-20T07:55:22;100808.06;;;13.45;100.00
32873;BME280;19224;52.462;16.898;2023-04-20T07:57:59;100809.23;;;13.40;100.00
32873;BME280;19224;52.462;16.898;2023-04-20T08:00:29;100807.01;;;13.48;100.00
32873;BME280;19224;52.462;16.898;2023-04-20T08:03:03;100814.51;;;13.51;100.00
32873;BME280;19224;52.462;16.898;2023-04-20T08:05:35;100809.49;;;13.52;100.00
32873;BME280;19224;52.462;16.898;2023-04-20T08:08:05;100814.09;;;13.69;100.00
32873;BME280;19224;52.462;16.898;2023-04-20T08:10:40;100806.87;;;13.86;100.00
32873;BME280;19224;52.462;16.898;2023-04-20T08:13:10;100808.31;;;14.20;100.00
32873;BME280;19224;52.462;16.898;2023-04-20T08:15:40;100809.53;;;14.32;100.00
32873;BME280;19224;52.462;16.898;2023-04-20T08:18:12;100808.66;;;14.40;100.00
32873;BME280;19224;52.462;16.898;2023-04-20T08:20:48;100809.22;;;14.46;100.00
32873;BME280;19224;52.462;16.898;2023-04-20T08:23:18;100810.70;;;14.43;100.00
32873;BME280;19224;52.462;16.898;2023-04-20T08:25:49;100818.52;;;14.24;100.00
32873;BME280;19224;52.462;16.898;2023-04-20T08:28:23;100821.23;;;14.24;100.00
32873;BME280;19224;52.462;16.898;2023-04-20T08:30:53;100818.28;;;14.37;100.00
32873;BME280;19224;52.462;16.898;2023-04-20T08:33:28;100811.13;;;14.44;100.00
32873;BME280;19224;52.462;16.898;2023-04-20T08:35:58;100819.00;;;14.48;100.00
32873;BME280;19224;52.462;16.898;2023-04-20T08:38:32;100821.34;;;14.56;100.00
32873;BME280;19224;52.462;16.898;2023-04-20T08:41:02;100817.25;;;14.64;100.00
32873;BME280;19224;52.462;16.898;2023-04-20T08:43:32;100818.28;;;14.62;100.00
32873;BME280;19224;52.462;16.898;2023-04-20T08:46:03;100815.57;;;14.62;100.00
32873;BME280;19224;52.462;16.898;2023-04-20T08:48:37;100818.28;;;14.62;100.00
32873;BME280;19224;52.462;16.898;2023-04-20T08:51:09;100816.22;;;14.67;100.00
32873;BME280;19224;52.462;16.898;2023-04-20T08:53:41;100815.09;;;14.71;100.00
32873;BME280;19224;52.462;16.898;2023-04-20T08:56:11;100821.03;;;14.86;100.00
32873;BME280;19224;52.462;16.898;2023-04-20T08:58:43;100821.11;;;14.93;100.00
32873;BME280;19224;52.462;16.898;2023-04-20T09:01:15;100829.37;;;15.07;100.00
32873;BME280;19224;52.462;16.898;2023-04-20T09:03:48;100821.48;;;15.02;100.00
32873;BME280;19224;52.462;16.898;2023-04-20T09:06:25;100824.80;;;15.16;100.00
32873;BME280;19224;52.462;16.898;2023-04-20T09:08:57;100827.91;;;15.34;100.00
32873;BME280;19224;52.462;16.898;2023-04-20T09:11:28;100826.11;;;15.41;99.75
32873;BME280;19224;52.462;16.898;2023-04-20T09:14:04;100818.04;;;15.40;98.32
32873;BME280;19224;52.462;16.898;2023-04-20T09:16:54;100817.59;;;15.56;98.34
32873;BME280;19224;52.462;16.898;2023-04-20T09:19:29;100816.59;;;15.88;99.33
32873;BME280;19224;52.462;16.898;2023-04-20T09:22:00;100822.22;;;16.30;99.26
32873;BME280;19224;52.462;16.898;2023-04-20T09:24:35;100822.95;;;16.56;95.17
32873;BME280;19224;52.462;16.898;2023-04-20T09:27:19;100825.86;;;16.60;92.07
32873;BME280;19224;52.462;16.898;2023-04-20T09:30:01;100832.73;;;16.51;93.10
32873;BME280;19224;52.462;16.898;2023-04-20T09:32:34;100831.33;;;16.74;93.56
32873;BME280;19224;52.462;16.898;2023-04-20T09:35:06;100833.50;;;16.96;93.42
32873;BME280;19224;52.462;16.898;2023-04-20T09:37:48;100832.25;;;17.09;92.74
32873;BME280;19224;52.462;16.898;2023-04-20T09:40:18;100837.41;;;17.27;93.03
32873;BME280;19224;52.462;16.898;2023-04-20T09:42:57;100843.28;;;17.56;91.85
32873;BME280;19224;52.462;16.898;2023-04-20T09:45:30;100843.63;;;17.71;90.02
32873;BME280;19224;52.462;16.898;2023-04-20T09:48:05;100844.44;;;17.66;89.08
32873;BME280;19224;52.462;16.898;2023-04-20T09:50:37;100843.28;;;17.56;90.41
32873;BME280;19224;52.462;16.898;2023-04-20T09:53:10;100843.54;;;17.59;86.53
32873;BME280;19224;52.462;16.898;2023-04-20T09:55:46;100842.97;;;17.47;85.59
32873;BME280;19224;52.462;16.898;2023-04-20T09:58:23;100833.90;;;17.04;86.89
32873;BME280;19224;52.462;16.898;2023-04-20T10:00:54;100835.56;;;17.07;89.13
32873;BME280;19224;52.462;16.898;2023-04-20T10:03:23;100842.87;;;17.34;88.34
32873;BME280;19224;52.462;16.898;2023-04-20T10:05:54;100844.64;;;17.56;86.84
32873;BME280;19224;52.462;16.898;2023-04-20T10:08:26;100844.44;;;17.38;84.82
32873;BME280;19224;52.462;16.898;2023-04-20T10:10:58;100838.38;;;17.54;85.75
32873;BME280;19224;52.462;16.898;2023-04-20T10:13:33;100835.21;;;17.41;85.67
32873;BME280;19224;52.462;16.898;2023-04-20T10:16:05;100835.28;;;17.60;85.68
32873;BME280;19224;52.462;16.898;2023-04-20T10:18:36;100834.30;;;17.68;81.79
32873;BME280;19224;52.462;16.898;2023-04-20T10:21:07;100833.50;;;17.73;84.18
32873;BME280;19224;52.462;16.898;2023-04-20T10:23:50;100825.10;;;17.90;84.25
32873;BME280;19224;52.462;16.898;2023-04-20T10:26:21;100826.50;;;18.10;84.48
32873;BME280;19224;52.462;16.898;2023-04-20T10:28:59;100823.61;;;17.99;80.66
32873;BME280;19224;52.462;16.898;2023-04-20T10:31:45;100823.36;;;17.89;82.46
32873;BME280;19224;52.462;16.898;2023-04-20T10:34:15;100834.81;;;18.01;81.90
32873;BME280;19224;52.462;16.898;2023-04-20T10:36:47;100824.90;;;17.86;79.17
32873;BME280;19224;52.462;16.898;2023-04-20T10:39:20;100823.53;;;17.86;79.53
32873;BME280;19224;52.462;16.898;2023-04-20T10:41:56;100821.17;;;18.01;80.28
32873;BME280;19224;52.462;16.898;2023-04-20T10:44:31;100826.06;;;18.30;80.29
32873;BME280;19224;52.462;16.898;2023-04-20T10:47:04;100813.62;;;18.45;77.95
32873;BME280;19224;52.462;16.898;2023-04-20T10:49:34;100819.34;;;18.67;78.25
32873;BME280;19224;52.462;16.898;2023-04-20T10:52:05;100814.05;;;18.71;78.27
32873;BME280;19224;52.462;16.898;2023-04-20T10:54:40;100808.48;;;18.73;77.62
32873;BME280;19224;52.462;16.898;2023-04-20T10:57:14;100807.56;;;18.47;74.80
32873;BME280;19224;52.462;16.898;2023-04-20T10:59:45;100809.66;;;18.56;75.37
32873;BME280;19224;52.462;16.898;2023-04-20T11:02:15;100805.22;;;18.48;77.12
32873;BME280;19224;52.462;16.898;2023-04-20T11:04:47;100802.44;;;18.36;77.43
32873;BME280;19224;52.462;16.898;2023-04-20T11:07:18;100806.28;;;18.33;75.13
32873;BME280;19224;52.462;16.898;2023-04-20T11:09:56;100799.41;;;18.40;76.65
32873;BME280;19224;52.462;16.898;2023-04-20T11:12:26;100796.87;;;18.57;75.04
32873;BME280;19224;52.462;16.898;2023-04-20T11:14:58;100805.09;;;18.30;74.42
32873;BME280;19224;52.462;16.898;2023-04-20T11:17:36;100804.76;;;18.15;77.03
32873;BME280;19224;52.462;16.898;2023-04-20T11:20:16;100808.91;;;18.01;77.43
32873;BME280;19224;52.462;16.898;2023-04-20T11:22:57;100812.94;;;18.15;79.46
32873;BME280;19224;52.462;16.898;2023-04-20T11:25:29;100801.86;;;18.57;76.27
32873;BME280;19224;52.462;16.898;2023-04-20T11:28:09;100808.26;;;18.88;74.49
32873;BME280;19224;52.462;16.898;2023-04-20T11:30:41;100805.77;;;18.98;73.38
32873;BME280;19224;52.462;16.898;2023-04-20T11:33:11;100797.57;;;18.53;73.40
32873;BME280;19224;52.462;16.898;2023-04-20T11:35:43;100797.90;;;18.29;74.91
32873;BME280;19224;52.462;16.898;2023-04-20T11:38:14;100797.73;;;18.45;74.92
32873;BME280;19224;52.462;16.898;2023-04-20T11:40:46;100795.06;;;18.82;73.24
32873;BME280;19224;52.462;16.898;2023-04-20T11:43:21;100800.66;;;19.18;71.97
32873;BME280;19224;52.462;16.898;2023-04-20T11:45:51;100793.26;;;19.38;73.10
32873;BME280;19224;52.462;16.898;2023-04-20T11:48:21;100801.12;;;19.43;73.12
32873;BME280;19224;52.462;16.898;2023-04-20T11:50:52;100787.66;;;19.22;71.36
32873;BME280;19224;52.462;16.898;2023-04-20T11:53:25;100789.64;;;18.75;73.49
32873;BME280;19224;52.462;16.898;2023-04-20T11:55:55;100792.20;;;18.39;75.58
32873;BME280;19224;52.462;16.898;2023-04-20T11:58:25;100795.94;;;18.31;76.05
32873;BME280;19224;52.462;16.898;2023-04-20T12:00:56;100794.75;;;18.09;77.02
32873;BME280;19224;52.462;16.898;2023-04-20T12:03:26;100788.23;;;18.11;78.08
32873;BME280;19224;52.462;16.898;2023-04-20T12:05:57;100789.24;;;18.30;77.04
32873;BME280;19224;52.462;16.898;2023-04-20T12:08:29;100789.23;;;18.49;77.08
32873;BME280;19224;52.462;16.898;2023-04-20T12:10:59;100782.63;;;18.59;75.42
32873;BME280;19224;52.462;16.898;2023-04-20T12:13:30;100786.21;;;18.66;75.05
32873;BME280;19224;52.462;16.898;2023-04-20T12:16:05;100782.56;;;18.53;73.13
32873;BME280;19224;52.462;16.898;2023-04-20T12:18:35;100784.64;;;18.30;72.81
32873;BME280;19224;52.462;16.898;2023-04-20T12:21:17;100777.78;;;18.18;74.60
32873;BME280;19224;52.462;16.898;2023-04-20T12:23:45;100773.84;;;18.48;74.43
32873;BME280;19224;52.462;16.898;2023-04-20T12:26:17;100775.63;;;18.87;72.73
32873;BME280;19224;52.462;16.898;2023-04-20T12:28:47;100771.41;;;19.01;70.84
32873;BME280;19224;52.462;16.898;2023-04-20T12:31:21;100778.28;;;19.31;69.08
32873;BME280;19224;52.462;16.898;2023-04-20T12:33:52;100773.47;;;19.47;69.69
32873;BME280;19224;52.462;16.898;2023-04-20T12:36:25;100776.85;;;19.51;69.24
32873;BME280;19224;52.462;16.898;2023-04-20T12:38:55;100780.67;;;19.48;68.49
32873;BME280;19224;52.462;16.898;2023-04-20T12:41:26;100782.61;;;19.41;68.35
32873;BME280;19224;52.462;16.898;2023-04-20T12:43:56;100777.48;;;19.36;68.74
32873;BME280;19224;52.462;16.898;2023-04-20T12:46:26;100771.97;;;19.48;68.77
32873;BME280;19224;52.462;16.898;2023-04-20T12:48:56;100774.32;;;19.48;68.83
32873;BME280;19224;52.462;16.898;2023-04-20T12:51:31;100771.43;;;19.56;68.26
32873;BME280;19224;52.462;16.898;2023-04-20T12:54:02;100774.83;;;19.47;68.75
32873;BME280;19224;52.462;16.898;2023-04-20T12:56:32;100768.84;;;19.60;68.91
32873;BME280;19224;52.462;16.898;2023-04-20T12:59:04;100769.15;;;19.68;69.26
32873;BME280;19224;52.462;16.898;2023-04-20T13:01:40;100766.85;;;19.62;68.98
32873;BME280;19224;52.462;16.898;2023-04-20T13:04:10;100763.27;;;19.06;69.65